Time;durP1;ratioP1;P1;durP2;ratioP2;P2;SDS_P1;SDS_P2;PMS_P1;PMS_P2;Temp;Humidity;BMP_temperature;BMP_pressure;BME280_temperature;BME280_humidity;BME280_pressure;Samples;Min_cycle;Max_cycle;Signal;HPM_P1;HPM_P2
2022/02/03 06:31:09;;;;;;;10.15;7.72;;;;;;;3.31;71.08;94145.81;825391;71;30427;-73
2022/02/03 06:46:16;;;;;;;10.53;8.10;;;;;;;3.39;70.62;94173.34;830072;71;33214;-72
2022/02/03 07:01:51;;;;;;;10.70;8.00;;;;;;;3.37;69.85;94190.97;833625;71;29733;-71
2022/02/03 07:16:08;;;;;;;12.00;9.38;;;;;;;3.54;69.50;94199.10;827591;71;29713;-78
2022/02/03 07:31:08;;;;;;;14.75;8.90;;;;;;;3.76;69.16;94216.61;827845;71;30197;-73
2022/02/03 07:46:49;;;;;;;10.13;8.83;;;;;;;3.89;68.87;94245.73;850117;69;30232;-79
2022/02/03 08:24:22;;;;;;;11.75;9.33;;;;;;;5.45;64.42;94292.17;767891;75;26810;-76
2022/02/03 08:25:28;;;;;;;12.93;9.95;;;;;;;5.49;64.29;94297.13;766199;76;26742;-77
2022/02/03 08:26:42;;;;;;;13.08;10.08;;;;;;;5.50;64.00;94296.09;758315;76;26398;-78
2022/02/03 08:28:57;;;;;;;10.80;9.10;;;;;;;5.57;63.69;94305.70;775512;75;27128;-77
2022/02/03 08:31:01;;;;;;;11.55;9.35;;;;;;;5.63;63.38;94308.04;763635;77;26475;-77
2022/02/03 08:33:16;;;;;;;12.73;9.63;;;;;;;5.69;63.18;94308.05;772966;76;26402;-78
2022/02/03 08:34:21;;;;;;;10.95;9.33;;;;;;;5.74;63.24;94314.58;754848;77;26294;-79
2022/02/03 08:35:44;;;;;;;10.05;8.38;;;;;;;5.77;63.00;94312.73;753474;77;26827;-78
2022/02/03 08:36:44;;;;;;;11.00;8.35;;;;;;;5.80;62.88;94310.39;765119;76;26842;-80
2022/02/03 08:39:05;;;;;;;10.60;9.33;;;;;;;5.83;62.60;94317.67;762727;76;26354;-79
2022/02/03 08:40:12;;;;;;;10.18;8.83;;;;;;;5.85;62.36;94320.55;769276;75;26423;-78
2022/02/03 08:41:15;;;;;;;11.45;9.13;;;;;;;5.87;62.31;94321.06;763614;77;26851;-78
2022/02/03 08:42:19;;;;;;;9.80;8.80;;;;;;;5.87;62.38;94321.84;757147;77;26398;-79
2022/02/03 08:43:24;;;;;;;9.53;8.53;;;;;;;5.90;62.17;94321.83;756149;77;26811;-77
2022/02/03 08:44:28;;;;;;;10.70;8.35;;;;;;;5.92;62.20;94324.95;756682;77;26300;-77
2022/02/03 08:45:32;;;;;;;9.60;8.70;;;;;;;5.95;62.13;94327.84;760805;77;26323;-79
2022/02/03 08:46:35;;;;;;;9.95;8.50;;;;;;;5.95;61.91;94330.45;764042;76;26373;-78
2022/02/03 08:47:39;;;;;;;10.20;7.80;;;;;;;5.98;61.82;94332.55;763390;76;26817;-77
2022/02/03 08:48:43;;;;;;;8.63;7.78;;;;;;;5.99;61.75;94332.79;763572;76;26422;-79
2022/02/03 08:49:47;;;;;;;8.40;7.58;;;;;;;6.00;61.50;94333.06;763613;76;26295;-77
2022/02/03 08:50:51;;;;;;;8.85;8.00;;;;;;;5.99;61.30;94335.92;772488;76;26865;-78
2022/02/03 08:51:59;;;;;;;11.53;7.70;;;;;;;6.03;61.31;94337.48;776135;76;26762;-78
2022/02/03 08:53:08;;;;;;;9.75;8.00;;;;;;;6.05;61.25;94345.29;763242;76;26403;-79
2022/02/03 08:54:11;;;;;;;9.28;7.60;;;;;;;6.06;61.32;94340.33;768757;75;26277;-79
2022/02/03 08:56:46;;;;;;;8.75;7.60;;;;;;;6.09;61.03;94348.93;764712;75;26334;-78
2022/02/03 09:35:43;;;;;;;11.00;8.60;;;;;;;6.36;59.75;94388.23;763393;76;26405;-79
2022/02/03 09:40:20;;;;;;;9.85;8.40;;;;;;;6.44;59.50;94396.81;763687;77;26309;-81
2022/02/03 09:52:10;;;;;;;8.70;7.80;;;;;;;6.63;58.76;94398.36;709530;82;26410;-80
2022/02/03 09:53:05;;;;;;;9.85;8.68;;;;;;;6.64;58.61;94394.69;734219;78;26403;-82
2022/02/03 09:59:08;;;;;;;9.10;8.20;;;;;;;6.75;58.43;94398.84;753265;78;27176;-81
2022/02/03 10:00:48;;;;;;;9.48;7.95;;;;;;;6.77;58.32;94396.75;751751;78;26352;-78
2022/02/03 10:01:55;;;;;;;10.50;8.53;;;;;;;6.79;58.54;94399.87;751940;78;26924;-82
2022/02/03 10:03:02;;;;;;;9.13;8.23;;;;;;;6.84;58.56;94398.30;749388;78;26317;-79
2022/02/03 10:04:19;;;;;;;9.13;8.15;;;;;;;6.86;58.47;94401.41;740763;78;27044;-80
2022/02/03 10:05:41;;;;;;;10.03;8.00;;;;;;;6.88;58.54;94399.32;742577;78;26779;-80
2022/02/03 10:06:54;;;;;;;9.88;8.10;;;;;;;6.90;58.30;94399.30;740665;78;26431;-79
2022/02/03 10:07:55;;;;;;;9.73;8.73;;;;;;;6.91;58.18;94406.59;744940;79;26348;-80
2022/02/03 10:09:00;;;;;;;10.10;9.10;;;;;;;6.93;58.09;94404.50;745390;78;26464;-79
2022/02/03 10:10:08;;;;;;;9.90;8.90;;;;;;;6.96;58.11;94401.38;753289;78;26445;-79
2022/02/03 10:11:13;;;;;;;9.55;8.63;;;;;;;6.98;58.05;94403.97;746965;78;26380;-78
2022/02/03 10:12:18;;;;;;;8.48;7.62;;;;;;;7.02;58.04;94399.01;749239;78;26297;-80
2022/02/03 10:13:23;;;;;;;9.35;8.30;;;;;;;7.06;58.00;94405.25;740870;78;26314;-79
2022/02/03 10:14:36;;;;;;;8.85;7.95;;;;;;;7.07;57.94;94401.58;747456;78;26456;-78
2022/02/03 10:15:39;;;;;;;10.18;8.50;;;;;;;7.12;57.95;94402.11;752063;78;26313;-80
2022/02/03 10:16:43;;;;;;;8.80;8.00;;;;;;;7.15;57.73;94404.94;741678;78;26365;-77
2022/02/03 10:17:50;;;;;;;8.80;8.00;;;;;;;7.20;57.72;94404.92;741021;78;26326;-78
2022/02/03 10:19:14;;;;;;;8.70;7.85;;;;;;;7.25;57.62;94407.26;742515;79;26864;-78
2022/02/03 10:20:21;;;;;;;8.78;7.83;;;;;;;7.30;57.54;94396.78;740281;78;26763;-79
2022/02/03 10:21:25;;;;;;;9.45;8.45;;;;;;;7.36;57.49;94400.92;739944;78;26333;-77
2022/02/03 10:22:29;;;;;;;8.80;7.90;;;;;;;7.43;57.43;94404.03;740968;78;26411;-78
2022/02/03 10:23:35;;;;;;;10.30;8.48;;;;;;;7.47;57.31;94397.75;748221;78;26750;-77
2022/02/03 10:24:40;;;;;;;9.40;8.40;;;;;;;7.53;57.38;94396.67;742401;78;26365;-79
2022/02/03 10:25:43;;;;;;;9.80;8.70;;;;;;;7.58;57.17;94398.73;741390;78;26408;-80
2022/02/03 10:26:51;;;;;;;8.95;7.85;;;;;;;7.63;57.02;94405.75;748393;79;26333;-79
2022/02/03 10:28:05;;;;;;;9.30;8.03;;;;;;;7.68;56.98;94402.31;750263;78;26806;-80
2022/02/03 10:29:15;;;;;;;9.60;8.40;;;;;;;7.72;57.04;94399.41;749394;78;26325;-80
2022/02/03 10:30:26;;;;;;;9.55;8.28;;;;;;;7.77;57.04;94404.62;746438;78;26383;-81
2022/02/03 10:31:37;;;;;;;12.43;9.00;;;;;;;7.81;56.70;94395.19;746774;78;26431;-80
2022/02/03 10:32:44;;;;;;;8.90;8.03;;;;;;;7.85;56.49;94399.31;750122;78;26606;-81
2022/02/03 10:33:50;;;;;;;9.03;8.20;;;;;;;7.90;56.29;94397.98;751218;78;26289;-80
2022/02/03 10:34:53;;;;;;;10.25;8.70;;;;;;;7.94;56.15;94397.70;751766;78;26818;-81
2022/02/03 10:36:01;;;;;;;10.55;7.90;;;;;;;7.96;55.94;94402.89;742083;78;26893;-81
2022/02/03 10:37:13;;;;;;;10.08;9.08;;;;;;;8.02;55.61;94399.72;747601;78;26741;-80
2022/02/03 10:45:08;;;;;;;8.45;7.62;;;;;;;8.69;54.80;94391.31;749596;78;26349;-82
2022/02/03 10:46:38;;;;;;;9.55;8.55;;;;;;;8.80;54.39;94385.70;749189;78;26785;-81
2022/02/03 10:51:07;;;;;;;9.05;8.15;;;;;;;9.14;53.64;94391.31;752893;78;26365;-84
2022/02/03 10:52:58;;;;;;;10.65;8.10;;;;;;;9.31;52.93;94388.77;743503;78;26873;-82
2022/02/03 10:54:07;;;;;;;9.40;8.40;;;;;;;9.37;53.07;94384.49;744046;78;26357;-82
2022/02/03 11:04:39;;;;;;;9.45;8.23;;;;;;;;;;743113;79;26419;-82
2022/02/03 11:06:57;;;;;;;9.30;8.03;;;;;;;;;;746509;79;26387;-80
2022/02/03 11:08:12;;;;;;;9.13;8.23;;;;;;;;;;744719;79;26340;-82
2022/02/03 11:11:21;;;;;;;8.25;7.55;;;;;;;;;;739842;80;26411;-82
2022/02/03 11:12:24;;;;;;;8.20;7.40;;;;;;;;;;746367;78;26345;-84
2022/02/03 11:13:33;;;;;;;7.58;6.83;;;;;;;;;;741438;79;26361;-86
2022/02/03 11:14:36;;;;;;;7.33;6.72;;;;;;;;;;742115;79;26311;-83
2022/02/03 11:15:41;;;;;;;7.80;7.10;;;;;;;;;;740765;79;26835;-81
2022/02/03 11:16:43;;;;;;;8.15;7.35;;;;;;;;;;740833;78;26870;-85
2022/02/03 11:17:48;;;;;;;7.70;6.90;;;;;;;;;;741404;79;26338;-83
2022/02/03 11:18:50;;;;;;;7.47;6.70;;;;;;;;;;747322;78;26837;-84
2022/02/03 11:19:57;;;;;;;7.47;6.87;;;;;;;;;;739089;79;26335;-82
2022/02/03 11:21:00;;;;;;;7.60;6.85;;;;;;;;;;750263;79;26349;-81
2022/02/03 11:22:07;;;;;;;8.13;7.42;;;;;;;;;;750015;79;26346;-83
2022/02/03 11:24:22;;;;;;;8.38;7.60;;;;;;;;;;750001;79;26384;-84
2022/02/03 11:33:13;;;;;;;7.53;6.87;;;;;;;;;;748627;79;26344;-80
2022/02/03 11:37:18;;;;;;;8.73;7.83;;;;;;;;;;744268;78;26325;-79
2022/02/03 11:38:37;;;;;;;7.97;7.28;;;;;;;;;;742101;79;26302;-80
2022/02/03 11:41:28;;;;;;;7.95;7.25;;;;;;;;;;742536;78;26313;-78
2022/02/03 11:42:39;;;;;;;8.05;7.35;;;;;;;;;;739526;80;26322;-79
2022/02/03 11:50:25;;;;;;;8.30;7.50;;;;;;;;;;741007;80;26394;-78
2022/02/03 11:52:33;;;;;;;8.60;7.70;;;;;;;;;;739531;79;26342;-80
2022/02/03 11:57:03;;;;;;;8.75;7.90;;;;;;;;;;742948;78;26672;-80
2022/02/03 11:59:12;;;;;;;8.85;7.95;;;;;;;;;;745199;78;26773;-79
2022/02/03 12:01:38;;;;;;;8.73;7.90;;;;;;;;;;756077;77;26843;-79
2022/02/03 12:02:51;;;;;;;10.75;7.87;;;;;;;;;;752992;78;26743;-78
2022/02/03 12:05:40;;;;;;;10.95;7.92;;;;;;;;;;745777;79;26356;-77
2022/02/03 12:07:31;;;;;;;9.40;7.10;;;;;;;;;;737859;78;26806;-79
2022/02/03 12:12:19;;;;;;;8.60;7.80;;;;;;;;;;740264;79;26325;-78
2022/02/03 12:15:52;;;;;;;9.90;7.83;;;;;;;;;;722127;81;26470;-79
2022/02/03 12:17:12;;;;;;;8.68;7.80;;;;;;;;;;742736;78;26435;-78
2022/02/03 12:18:23;;;;;;;8.48;7.70;;;;;;;;;;744128;78;27243;-78
2022/02/03 12:20:25;;;;;;;8.98;8.08;;;;;;;;;;753721;77;26779;-78
2022/02/03 12:21:27;;;;;;;8.40;7.60;;;;;;;;;;751928;78;26439;-79
2022/02/03 12:22:54;;;;;;;8.65;7.15;;;;;;;;;;753994;77;26644;-77
2022/02/03 12:25:07;;;;;;;8.60;7.62;;;;;;;;;;744451;78;26338;-78
2022/02/03 12:26:13;;;;;;;8.63;7.83;;;;;;;;;;742244;79;26960;-79
2022/02/03 12:27:34;;;;;;;9.00;8.00;;;;;;;;;;752579;77;26337;-78
2022/02/03 12:29:12;;;;;;;9.03;8.13;;;;;;;;;;746132;79;26869;-78
2022/02/03 12:29:53;;;;;;;9.28;8.40;;;;;;;;;;737686;79;26794;-80
2022/02/03 12:37:26;;;;;;;9.85;8.85;;;;;;;;;;741280;80;26363;-77
2022/02/03 12:38:31;;;;;;;10.32;8.73;;;;;;;;;;738560;79;26358;-78
2022/02/03 12:39:37;;;;;;;9.68;8.65;;;;;;;;;;742469;78;26401;-80
2022/02/03 12:40:51;;;;;;;8.93;7.85;;;;;;;;;;756565;77;26317;-79
2022/02/03 12:42:57;;;;;;;8.70;7.78;;;;;;;;;;749209;79;26353;-79
2022/02/03 12:44:04;;;;;;;10.10;8.68;;;;;;;;;;747053;78;26344;-79
2022/02/03 12:45:16;;;;;;;10.03;8.70;;;;;;;;;;742171;78;26776;-78
2022/02/03 12:46:10;;;;;;;9.20;8.03;;;;;;;;;;754922;78;26332;-79
2022/02/03 12:47:14;;;;;;;10.53;8.20;;;;;;;;;;754345;78;26443;-78
2022/02/03 12:48:18;;;;;;;9.98;8.65;;;;;;;;;;756796;77;27406;-79
2022/02/03 12:49:21;;;;;;;9.53;8.55;;;;;;;;;;752859;78;26327;-80
2022/02/03 12:50:28;;;;;;;9.85;8.83;;;;;;;;;;752649;78;26396;-78
2022/02/03 12:51:31;;;;;;;10.35;9.10;;;;;;;;;;753562;78;26357;-78
2022/02/03 12:52:34;;;;;;;10.43;9.40;;;;;;;;;;751414;78;26920;-79
2022/02/03 12:53:41;;;;;;;9.83;8.83;;;;;;;;;;751613;78;26389;-79
2022/02/03 12:54:43;;;;;;;10.25;8.75;;;;;;;;;;753425;78;26789;-79
2022/02/03 12:55:51;;;;;;;9.80;8.73;;;;;;;;;;755247;78;26332;-79
2022/02/03 12:57:01;;;;;;;10.68;9.25;;;;;;;;;;751415;78;26442;-79
2022/02/03 12:58:05;;;;;;;10.53;9.40;;;;;;;;;;753595;78;26412;-80
2022/02/03 12:59:13;;;;;;;10.85;9.25;;;;;;;;;;751436;78;27157;-78
2022/02/03 13:00:17;;;;;;;10.35;8.65;;;;;;;;;;752047;78;26326;-80
2022/02/03 13:01:28;;;;;;;10.03;9.03;;;;;;;;;;751116;78;26330;-78
2022/02/03 13:02:24;;;;;;;9.73;8.10;;;;;;;;;;751978;78;26859;-78
2022/02/03 13:03:36;;;;;;;9.90;8.63;;;;;;;;;;754018;78;26371;-78
2022/02/03 13:04:33;;;;;;;9.03;8.13;;;;;;;;;;749706;78;26458;-78
2022/02/03 13:05:37;;;;;;;9.10;8.20;;;;;;;;;;753193;78;26735;-79
2022/02/03 13:06:44;;;;;;;8.58;7.67;;;;;;;;;;751215;78;26747;-80
2022/02/03 13:07:44;;;;;;;9.50;8.58;;;;;;;;;;752745;78;26359;-79
2022/02/03 13:08:50;;;;;;;9.80;8.40;;;;;;;;;;752922;78;26320;-78
2022/02/03 13:09:54;;;;;;;9.28;8.38;;;;;;;;;;740400;79;26733;-79
2022/02/03 13:11:05;;;;;;;9.88;8.83;;;;;;;;;;742981;78;26936;-79
2022/02/03 13:12:22;;;;;;;9.88;8.88;;;;;;;;;;741882;80;26382;-79
2022/02/03 13:13:36;;;;;;;10.85;9.33;;;;;;;;;;753011;78;26827;-79
2022/02/03 13:14:36;;;;;;;10.10;8.88;;;;;;;;;;757029;77;26399;-78
2022/02/03 13:15:36;;;;;;;9.78;8.65;;;;;;;;;;755670;76;26384;-78
2022/02/03 13:16:40;;;;;;;10.35;9.08;;;;;;;;;;755781;77;26312;-78
2022/02/03 13:17:54;;;;;;;9.80;8.68;;;;;;;;;;753163;78;26374;-79
2022/02/03 13:19:02;;;;;;;10.68;9.25;;;;;;;;;;743055;78;26350;-78
2022/02/03 13:20:08;;;;;;;10.68;8.38;;;;;;;;;;737389;78;26329;-78
2022/02/03 13:21:28;;;;;;;9.70;8.70;;;;;;;;;;754038;77;26755;-79
2022/02/03 13:23:38;;;;;;;11.53;8.78;;;;;;;;;;755991;77;26372;-78
2022/02/03 13:27:12;;;;;;;9.70;8.78;;;;;;;;;;754431;78;26333;-79
2022/02/03 13:28:22;;;;;;;13.20;8.55;;;;;;;;;;754711;78;26289;-80
2022/02/03 13:29:29;;;;;;;9.80;8.80;;;;;;;;;;738374;79;26458;-80
2022/02/03 13:30:32;;;;;;;8.85;8.05;;;;;;;;;;742345;78;26322;-80
2022/02/03 13:32:04;;;;;;;10.05;9.05;;;;;;;;;;735691;80;26493;-82
2022/02/03 13:32:49;;;;;;;10.40;9.35;;;;;;;;;;741265;79;26772;-80
2022/02/03 13:33:52;;;;;;;10.32;8.95;;;;;;;;;;742437;78;26808;-80
2022/02/03 13:34:58;;;;;;;14.53;9.30;;;;;;;;;;749737;78;26416;-82
2022/02/03 13:36:02;;;;;;;8.68;7.78;;;;;;;;;;750606;78;26318;-80
2022/02/03 13:37:28;;;;;;;8.90;8.10;;;;;;;;;;750086;78;26824;-80
2022/02/03 13:39:51;;;;;;;10.80;8.80;;;;;;;;;;745133;78;26377;-81
2022/02/03 13:41:16;;;;;;;11.15;9.48;;;;;;;;;;743833;78;26361;-82
2022/02/03 13:42:17;;;;;;;10.20;8.08;;;;;;;;;;745855;78;26330;-81
2022/02/03 13:43:22;;;;;;;9.58;8.48;;;;;;;;;;742918;79;26384;-80
2022/02/03 13:44:26;;;;;;;10.20;8.88;;;;;;;;;;748221;78;26853;-81
2022/02/03 13:45:29;;;;;;;9.98;8.35;;;;;;;;;;748267;78;26360;-82
2022/02/03 13:46:33;;;;;;;8.93;7.78;;;;;;;;;;736054;79;26357;-81
2022/02/03 13:47:36;;;;;;;9.48;8.23;;;;;;;;;;742568;78;26373;-82
2022/02/03 13:48:40;;;;;;;8.90;8.10;;;;;;;;;;749434;79;26896;-79
2022/02/03 13:49:44;;;;;;;9.15;8.20;;;;;;;;;;748103;79;26400;-80
2022/02/03 13:50:56;;;;;;;9.78;8.20;;;;;;;;;;741337;79;26861;-82
2022/02/03 13:52:00;;;;;;;11.35;9.40;;;;;;;;;;753316;78;26316;-80
2022/02/03 13:53:21;;;;;;;9.78;8.85;;;;;;;;;;746322;79;26455;-79
2022/02/03 13:54:59;;;;;;;10.48;9.40;;;;;;;;;;745769;79;26420;-82
2022/02/03 14:13:07;;;;;;;10.90;8.33;;;;;;;;;;740105;80;26308;-80
2022/02/03 14:14:58;;;;;;;12.10;8.60;;;;;;;;;;749916;78;26434;-80
2022/02/03 14:20:58;;;;;;;14.13;11.30;;;;;;;;;;752469;78;26457;-82
2022/02/03 14:21:59;;;;;;;11.33;10.13;;;;;;;;;;751568;78;26412;-84
2022/02/03 14:28:15;;;;;;;9.28;8.35;;;;;;;;;;750519;78;26430;-81
2022/02/03 14:29:22;;;;;;;8.25;7.35;;;;;;;;;;740923;78;26358;-81
2022/02/03 14:30:23;;;;;;;8.23;7.42;;;;;;;;;;747462;78;26322;-80
2022/02/03 14:31:26;;;;;;;8.75;7.65;;;;;;;;;;739268;78;26401;-80
2022/02/03 14:32:35;;;;;;;9.25;7.85;;;;;;;;;;742281;78;26337;-79
2022/02/03 14:33:37;;;;;;;8.93;7.65;;;;;;;;;;749384;78;26281;-80
2022/02/03 14:34:38;;;;;;;7.65;6.95;;;;;;;;;;740473;78;26309;-79
2022/02/03 14:35:42;;;;;;;9.73;7.00;;;;;;;;;;740929;78;26416;-78
2022/02/03 14:36:48;;;;;;;7.80;7.00;;;;;;;;;;742217;79;26302;-80
2022/02/03 14:38:04;;;;;;;7.72;6.90;;;;;;;;;;749647;78;26380;-80
2022/02/03 14:39:14;;;;;;;8.98;7.60;;;;;;;;;;740765;78;26368;-79
2022/02/03 14:41:38;;;;;;;10.15;7.97;;;;;;;;;;740360;78;26322;-80
2022/02/03 14:42:43;;;;;;;8.18;7.40;;;;;;;;;;740519;78;26350;-81
2022/02/03 14:43:46;;;;;;;7.65;6.85;;;;;;;;;;749491;78;26416;-81
2022/02/03 14:44:52;;;;;;;7.67;6.30;;;;;;;;;;749389;78;26870;-79
2022/02/03 14:45:55;;;;;;;7.00;6.20;;;;;;;;;;752364;78;26333;-82
2022/02/03 14:46:58;;;;;;;6.78;6.10;;;;;;;;;;751573;78;26389;-79
2022/02/03 14:48:02;;;;;;;6.62;6.03;;;;;;;;;;751208;78;26336;-89
2022/02/03 14:49:05;;;;;;;6.97;6.15;;;;;;;;;;753362;78;26797;-80
2022/02/03 14:50:09;;;;;;;6.78;6.12;;;;;;;;;;747376;78;26724;-79
2022/02/03 14:51:21;;;;;;;7.47;6.78;;;;;;;;;;747027;78;26377;-78
2022/02/03 14:53:36;;;;;;;6.90;6.20;;;;;;;;;;753343;78;26430;-79
2022/02/03 14:59:23;;;;;;;7.95;6.95;;;;;;;;;;752438;78;26356;-79
2022/02/03 15:00:27;;;;;;;8.20;6.85;;;;;;;;;;749490;78;26316;-80
2022/02/03 15:01:38;;;;;;;8.03;7.05;;;;;;;;;;752965;78;26411;-82
2022/02/03 15:02:37;;;;;;;8.05;6.92;;;;;;;;;;746959;78;26423;-80
2022/02/03 15:03:39;;;;;;;8.55;6.97;;;;;;;;;;741115;78;26349;-86
2022/02/03 15:04:52;;;;;;;9.28;7.65;;;;;;;;;;749253;78;26348;-82
2022/02/03 15:05:47;;;;;;;7.78;6.97;;;;;;;;;;739838;78;26458;-83
2022/02/03 15:06:57;;;;;;;8.03;6.42;;;;;;;;;;742835;78;26406;-86
2022/02/03 15:07:59;;;;;;;8.00;7.20;;;;;;;;;;741127;79;26386;-82
2022/02/03 15:09:19;;;;;;;9.83;7.33;;;;;;;;;;738484;79;26456;-83
2022/02/03 15:10:40;;;;;;;7.53;6.78;;;;;;;;;;745115;77;26322;-87
2022/02/03 15:11:43;;;;;;;8.73;7.80;;;;;;;;;;747743;78;26330;-84
2022/02/03 15:13:45;;;;;;;8.88;7.35;;;;;;;;;;740310;79;26456;-80
2022/02/03 15:14:46;;;;;;;8.55;7.10;;;;;;;;;;756453;78;26333;-83
2022/02/03 15:15:49;;;;;;;7.67;6.90;;;;;;;;;;756499;78;26844;-80
2022/02/03 15:16:53;;;;;;;8.03;7.22;;;;;;;;;;756285;78;26456;-80
2022/02/03 15:17:57;;;;;;;7.70;6.40;;;;;;;;;;745261;79;26403;-80
2022/02/03 15:19:00;;;;;;;8.23;7.30;;;;;;;;;;747673;79;26361;-80
2022/02/03 15:20:06;;;;;;;6.95;6.35;;;;;;;;;;741243;78;26412;-83
2022/02/03 15:21:12;;;;;;;7.17;6.17;;;;;;;;;;734194;80;26372;-82
2022/02/03 15:22:15;;;;;;;7.60;6.85;;;;;;;;;;740143;79;26447;-83
2022/02/03 15:23:17;;;;;;;7.47;6.67;;;;;;;;;;748578;79;26407;-82
2022/02/03 15:24:20;;;;;;;8.78;6.45;;;;;;;;;;747068;79;26294;-83
2022/02/03 15:25:23;;;;;;;6.90;6.30;;;;;;;;;;746227;78;26337;-81
2022/02/03 15:26:25;;;;;;;7.40;6.65;;;;;;;;;;746773;78;26345;-80
2022/02/03 15:27:29;;;;;;;7.70;6.15;;;;;;;;;;753215;78;26324;-81
2022/02/03 15:28:31;;;;;;;6.90;6.20;;;;;;;;;;754072;78;26365;-79
2022/02/03 15:29:34;;;;;;;7.40;6.40;;;;;;;;;;749396;78;26353;-80
2022/02/03 15:30:37;;;;;;;8.03;6.67;;;;;;;;;;752240;78;26349;-79
2022/02/03 15:31:42;;;;;;;7.17;6.47;;;;;;;;;;749188;78;26349;-79
2022/02/03 15:32:48;;;;;;;7.62;6.75;;;;;;;;;;744656;78;26303;-84
2022/02/03 15:33:57;;;;;;;7.33;6.03;;;;;;;;;;747280;78;26400;-84
2022/02/03 15:34:55;;;;;;;6.37;5.78;;;;;;;;;;741257;79;26290;-82
2022/02/03 15:36:02;;;;;;;7.40;6.70;;;;;;;;;;742676;78;28387;-86
2022/02/03 15:37:05;;;;;;;8.33;7.15;;;;;;;;;;751838;78;26844;-86
2022/02/03 15:38:13;;;;;;;9.48;6.72;;;;;;;;;;750498;78;26289;-87
2022/02/03 15:39:14;;;;;;;7.60;6.85;;;;;;;;;;747641;79;26430;-88
2022/02/03 15:40:21;;;;;;;9.08;6.85;;;;;;;;;;752027;78;26936;-88
2022/02/03 15:41:26;;;;;;;7.55;6.50;;;;;;;;;;748741;79;26623;-86
2022/02/03 15:42:28;;;;;;;8.10;7.10;;;;;;;;;;741589;80;26436;-87
2022/02/03 15:43:38;;;;;;;7.25;6.65;;;;;;;;;;741529;79;26400;-88
2022/02/03 15:44:40;;;;;;;8.63;6.83;;;;;;;;;;739756;79;26316;-85
2022/02/03 15:45:43;;;;;;;8.38;7.30;;;;;;;;;;742594;78;26338;-89
2022/02/03 15:47:01;;;;;;;9.40;7.95;;;;;;;;;;742181;79;27122;-87
2022/02/03 15:47:54;;;;;;;8.70;7.72;;;;;;;;;;743998;78;26335;-86
2022/02/03 15:49:06;;;;;;;7.60;6.83;;;;;;;;;;743027;78;26412;-86
2022/02/03 16:04:19;;;;;;;7.97;7.08;;;;;;;;;;756994;77;26329;-85
2022/02/03 16:13:43;;;;;;;8.83;6.60;;;;;;;;;;742071;79;26369;-88
2022/02/03 16:17:03;;;;;;;10.60;7.12;;;;;;;;;;747870;79;26353;-85
2022/02/03 16:18:03;;;;;;;8.18;7.33;;;;;;;;;;746942;78;26801;-86
2022/02/03 16:19:06;;;;;;;7.58;6.78;;;;;;;;;;746384;79;26763;-86
2022/02/03 16:20:14;;;;;;;7.95;7.17;;;;;;;;;;749486;79;26628;-86
2022/02/03 16:21:23;;;;;;;7.33;6.62;;;;;;;;;;739664;79;26416;-85
2022/02/03 16:24:03;;;;;;;7.62;6.80;;;;;;;;;;743076;79;26423;-87
2022/02/03 16:25:04;;;;;;;8.38;6.60;;;;;;;;;;740366;79;26358;-85
2022/02/03 16:41:03;;;;;;;8.40;7.33;;;;;;;;;;747111;79;26442;-86
2022/02/03 16:51:37;;;;;;;8.90;8.00;;;;;;;;;;737239;79;26373;-87
2022/02/03 16:52:41;;;;;;;10.28;8.55;;;;;;;;;;734487;79;26429;-88
2022/02/03 16:53:32;;;;;;;9.85;8.55;;;;;;;;;;738567;80;26427;-87
2022/02/03 16:54:35;;;;;;;9.00;7.83;;;;;;;;;;741231;79;26976;-89
2022/02/03 16:55:41;;;;;;;11.00;8.10;;;;;;;;;;741227;79;26330;-87
2022/02/03 16:56:45;;;;;;;9.63;8.73;;;;;;;;;;746678;78;26417;-86
2022/02/03 16:57:50;;;;;;;11.90;8.63;;;;;;;;;;746913;78;26379;-85
2022/02/03 16:58:52;;;;;;;9.23;8.30;;;;;;;;;;747423;76;26372;-91
2022/02/03 17:00:04;;;;;;;9.00;8.10;;;;;;;;;;740614;79;26809;-83
2022/02/03 17:01:04;;;;;;;9.43;8.43;;;;;;;;;;746409;78;26398;-88
2022/02/03 17:02:09;;;;;;;9.20;7.65;;;;;;;;;;756351;77;26915;-92
2022/02/03 17:03:12;;;;;;;10.23;8.60;;;;;;;;;;757182;78;26352;-87
2022/02/03 17:04:18;;;;;;;9.33;8.40;;;;;;;;;;752937;77;26322;-88
2022/02/03 17:05:20;;;;;;;9.23;8.33;;;;;;;;;;744571;78;26430;-87
2022/02/03 17:06:23;;;;;;;10.53;8.00;;;;;;;;;;741140;79;26345;-87
2022/02/03 17:07:26;;;;;;;9.35;8.38;;;;;;;;;;747462;79;26900;-87
2022/02/03 17:08:30;;;;;;;8.13;7.33;;;;;;;;;;746049;78;26365;-89
2022/02/03 17:09:33;;;;;;;10.48;8.63;;;;;;;;;;737653;79;26384;-87
2022/02/03 17:10:38;;;;;;;9.35;8.33;;;;;;;;;;752808;77;27033;-88
2022/02/03 17:11:41;;;;;;;9.75;8.45;;;;;;;;;;753352;78;26416;-88
2022/02/03 17:12:45;;;;;;;9.08;8.18;;;;;;;;;;753954;78;26344;-88
2022/02/03 17:13:47;;;;;;;9.33;8.40;;;;;;;;;;754279;78;26876;-87
2022/02/03 17:14:53;;;;;;;9.70;8.70;;;;;;;;;;750755;78;26905;-89
2022/02/03 17:15:56;;;;;;;10.03;8.28;;;;;;;;;;737809;80;26393;-85
2022/02/03 17:17:01;;;;;;;10.88;9.35;;;;;;;;;;748133;79;26420;-86
2022/02/03 17:18:05;;;;;;;8.90;7.80;;;;;;;;;;747401;78;26600;-87
2022/02/03 17:19:08;;;;;;;10.55;8.75;;;;;;;;;;749887;78;24797;-90
2022/02/03 17:20:12;;;;;;;9.25;8.30;;;;;;;;;;750070;78;26362;-87
2022/02/03 17:21:15;;;;;;;8.90;8.10;;;;;;;;;;746750;78;26342;-88
2022/02/03 17:22:30;;;;;;;9.40;8.33;;;;;;;;;;744229;79;26854;-90
2022/02/03 17:23:31;;;;;;;9.38;8.43;;;;;;;;;;748370;78;27250;-90
2022/02/03 17:24:41;;;;;;;10.48;9.40;;;;;;;;;;750238;78;26319;-84
2022/02/03 17:25:49;;;;;;;11.55;9.35;;;;;;;;;;749716;78;26358;-84
2022/02/03 17:28:19;;;;;;;12.98;9.03;;;;;;;;;;745454;78;26290;-91
2022/02/03 17:29:22;;;;;;;10.23;8.95;;;;;;;;;;751173;78;26636;-90
2022/02/03 17:30:30;;;;;;;11.83;10.20;;;;;;;;;;749439;79;26338;-92
2022/02/03 18:08:01;;;;;;;13.20;10.53;;;;;;;;;;767204;77;26281;-89
2022/02/03 18:08:48;;;;;;;13.15;10.63;;;;;;;;;;766361;77;26309;-89
2022/02/03 18:50:38;;;;;;;12.37;9.88;;;;;;;3.60;58.68;94792.94;809516;73;26189;-90
2022/02/03 18:51:10;;;;;;;15.10;10.03;;;;;;;3.60;58.74;94790.86;790091;73;26435;-90
2022/02/03 18:52:44;;;;;;;12.98;9.98;;;;;;;3.57;58.73;94795.23;810492;73;26291;-92
2022/02/03 18:53:54;;;;;;;11.45;9.10;;;;;;;3.54;58.92;94793.88;801774;73;26242;-91
2022/02/03 18:55:10;;;;;;;10.32;9.18;;;;;;;3.52;59.02;94797.22;809943;73;26224;-89
2022/02/03 18:56:22;;;;;;;10.90;8.80;;;;;;;3.51;59.03;94800.85;797423;73;26235;-90
2022/02/03 18:57:34;;;;;;;12.10;9.28;;;;;;;3.54;58.96;94802.18;801237;71;26255;-89
2022/02/03 18:58:40;;;;;;;12.15;9.70;;;;;;;3.52;58.90;94799.03;793137;74;26313;-88
2022/02/03 19:01:12;;;;;;;10.20;8.85;;;;;;;3.51;59.00;94804.74;778422;73;26379;-90
2022/02/03 19:22:47;;;;;;;9.78;8.25;;;;;;;3.38;59.04;94799.33;818113;72;26326;-84
2022/02/03 20:05:54;;;;;;;11.45;8.90;;;;;;;3.74;57.58;94805.09;797521;74;26337;-85
2022/02/03 20:08:21;;;;;;;10.48;8.63;;;;;;;3.79;57.61;94810.37;797756;74;26352;-84
2022/02/03 20:09:40;;;;;;;11.33;8.35;;;;;;;3.79;57.67;94809.07;795271;74;27144;-82
2022/02/03 20:10:38;;;;;;;9.13;7.45;;;;;;;3.80;57.53;94811.92;797078;73;26267;-83
2022/02/03 20:11:37;;;;;;;7.37;6.67;;;;;;;3.81;57.42;94806.22;805110;71;26303;-83
2022/02/03 20:12:41;;;;;;;9.20;7.25;;;;;;;3.82;57.31;94805.20;809409;73;26356;-83
2022/02/03 20:13:47;;;;;;;8.28;7.22;;;;;;;3.80;57.27;94801.55;809158;73;26324;-83
2022/02/03 20:14:51;;;;;;;8.33;6.90;;;;;;;3.80;57.22;94798.95;809075;73;26279;-86
2022/02/03 20:15:55;;;;;;;6.28;5.70;;;;;;;3.78;57.17;94803.59;809609;73;26300;-84
2022/02/03 20:16:59;;;;;;;8.15;6.90;;;;;;;3.80;57.22;94805.95;809252;73;26318;-82
2022/02/03 20:18:05;;;;;;;8.20;7.40;;;;;;;3.77;57.19;94800.73;808861;73;26245;-83
2022/02/03 20:19:10;;;;;;;7.87;6.80;;;;;;;3.80;57.10;94805.95;808555;73;26307;-83
2022/02/03 20:20:14;;;;;;;8.78;7.10;;;;;;;3.77;57.11;94796.84;809046;73;26690;-83
2022/02/03 20:21:19;;;;;;;7.37;6.65;;;;;;;3.78;57.06;94802.30;809059;73;26419;-81
2022/02/03 20:22:28;;;;;;;7.60;6.90;;;;;;;3.77;57.04;94799.92;809233;72;26318;-85
2022/02/03 20:23:28;;;;;;;8.38;6.90;;;;;;;3.79;57.00;94803.07;809973;73;26618;-82
2022/02/03 20:24:32;;;;;;;7.67;6.87;;;;;;;3.76;56.94;94793.18;810545;73;26309;-84
2022/02/03 20:25:36;;;;;;;7.78;6.97;;;;;;;3.76;56.92;94800.97;810553;73;26306;-85
2022/02/03 20:26:42;;;;;;;8.50;7.12;;;;;;;3.76;56.99;94798.38;810611;73;26324;-84
2022/02/03 20:27:46;;;;;;;7.45;6.70;;;;;;;3.76;56.96;94800.97;810592;73;26298;-82
2022/02/03 20:28:50;;;;;;;7.58;6.10;;;;;;;3.75;56.91;94798.08;810492;73;26291;-84
2022/02/03 20:29:54;;;;;;;7.03;6.42;;;;;;;3.75;56.89;94802.78;810520;73;26278;-84
2022/02/03 20:30:58;;;;;;;7.35;6.65;;;;;;;3.76;56.81;94806.94;810768;73;26320;-84
2022/02/03 20:32:02;;;;;;;7.55;6.60;;;;;;;3.78;56.81;94806.70;810313;73;24342;-85
2022/02/03 20:33:06;;;;;;;9.08;6.75;;;;;;;3.78;56.87;94809.30;806269;73;26298;-84
2022/02/03 20:34:10;;;;;;;7.35;6.50;;;;;;;3.76;56.80;94809.53;810842;73;26314;-85